createdAt,value
2018-06-01T00:00:32.519Z,7.50
2018-06-01T00:02:36.053Z,6.97
2018-06-01T00:04:39.605Z,6.57
2018-06-01T00:06:43.197Z,7.17
2018-06-01T00:08:46.724Z,5.87
2018-06-01T00:10:50.275Z,6.80
2018-06-01T00:12:53.789Z,6.57
2018-06-01T00:14:57.345Z,6.33
2018-06-01T00:17:00.859Z,6.47
2018-06-01T00:19:04.034Z,7.13
2018-06-01T00:21:07.255Z,7.20
2018-06-01T00:23:10.773Z,8.33
2018-06-01T00:25:14.354Z,7.40
2018-06-01T00:27:18.204Z,7.87
2018-06-01T00:29:21.728Z,7.97
2018-06-01T00:31:25.268Z,8.30
2018-06-01T00:33:28.775Z,7.07
2018-06-01T00:35:32.357Z,7.63
2018-06-01T00:37:35.842Z,7.63
2018-06-01T00:39:39.404Z,6.90
2018-06-01T00:41:42.956Z,7.83
2018-06-01T00:43:46.491Z,8.67
2018-06-01T00:45:50.022Z,7.97
2018-06-01T00:47:53.612Z,9.03
2018-06-01T00:49:57.095Z,8.27
2018-06-01T00:52:00.649Z,8.30
2018-06-01T00:54:04.136Z,9.00
2018-06-01T00:56:07.685Z,9.10
2018-06-01T00:58:11.201Z,8.80
2018-06-01T01:00:14.721Z,9.63
2018-06-01T01:02:18.295Z,10.10
2018-06-01T01:04:21.811Z,9.10
2018-06-01T01:06:25.410Z,9.83
2018-06-01T01:08:28.717Z,10.60
2018-06-01T01:10:32.250Z,9.97
2018-06-01T01:12:35.867Z,8.27
2018-06-01T01:14:39.399Z,8.40
2018-06-01T01:16:42.988Z,10.50
2018-06-01T01:18:46.544Z,11.27
2018-06-01T01:20:50.100Z,11.07
2018-06-01T01:22:53.617Z,9.80
2018-06-01T01:24:57.189Z,10.10
2018-06-01T01:27:00.883Z,10.03
2018-06-01T01:29:04.476Z,10.80
2018-06-01T01:31:08.221Z,8.13
2018-06-01T01:33:11.747Z,10.00
2018-06-01T01:35:15.281Z,10.87
2018-06-01T01:37:39.035Z,9.87
2018-06-01T01:39:42.553Z,8.57
2018-06-01T01:41:46.109Z,8.70
2018-06-01T01:43:49.632Z,8.87
2018-06-01T01:45:53.229Z,9.97
2018-06-01T01:47:56.739Z,8.93
2018-06-01T01:50:00.311Z,9.07
2018-06-01T01:52:04.782Z,9.37
2018-06-01T01:54:08.291Z,8.47
2018-06-01T01:56:11.829Z,9.07
2018-06-01T01:58:15.364Z,10.00
2018-06-01T02:00:18.940Z,9.10
2018-06-01T02:02:22.490Z,9.77
2018-06-01T02:04:26.029Z,10.47
2018-06-01T02:06:29.625Z,9.87
2018-06-01T02:08:33.164Z,9.40
2018-06-01T02:10:36.391Z,8.87
2018-06-01T02:12:39.935Z,9.37
2018-06-01T02:14:43.496Z,9.47
2018-06-01T02:16:47.099Z,9.80
2018-06-01T02:18:50.685Z,11.57
2018-06-01T02:20:54.225Z,10.20
2018-06-01T02:22:57.820Z,10.90
2018-06-01T02:25:01.412Z,10.33
2018-06-01T02:27:04.944Z,9.67
2018-06-01T02:29:08.581Z,9.93
2018-06-01T02:31:12.205Z,11.00
2018-06-01T02:33:15.816Z,11.10
2018-06-01T02:35:19.400Z,11.47
2018-06-01T02:37:23.006Z,10.30
2018-06-01T02:39:26.608Z,10.93
2018-06-01T02:41:30.231Z,11.07
2018-06-01T02:43:33.824Z,11.43
2018-06-01T02:45:37.427Z,11.73
2018-06-01T02:47:40.983Z,8.77
2018-06-01T02:49:44.595Z,9.93
2018-06-01T02:51:48.302Z,9.07
2018-06-01T02:53:51.838Z,9.53
2018-06-01T02:55:55.456Z,10.30
2018-06-01T02:57:59.047Z,12.37
2018-06-01T03:00:02.614Z,11.43
2018-06-01T03:02:06.212Z,13.60
2018-06-01T03:04:09.836Z,13.67
2018-06-01T03:06:13.420Z,13.60
2018-06-01T03:08:17.021Z,13.87
2018-06-01T03:10:20.611Z,12.33
2018-06-01T03:12:24.262Z,12.70
2018-06-01T03:14:27.793Z,13.40
2018-06-01T03:16:31.358Z,11.27
2018-06-01T03:18:34.931Z,11.33
2018-06-01T03:20:38.454Z,10.10
2018-06-01T03:22:42.042Z,10.80
2018-06-01T03:24:45.572Z,10.17
2018-06-01T03:26:49.136Z,8.77
2018-06-01T03:28:52.732Z,9.57
2018-06-01T03:30:56.263Z,9.27
2018-06-01T03:32:59.850Z,8.80
2018-06-01T03:35:03.396Z,8.30
2018-06-01T03:37:07.164Z,10.80
2018-06-01T03:39:10.762Z,10.00
2018-06-01T03:41:14.333Z,9.93
2018-06-01T03:43:17.897Z,8.53
2018-06-01T03:45:21.419Z,8.20
2018-06-01T03:47:24.977Z,9.37
2018-06-01T03:49:28.507Z,8.57
2018-06-01T03:51:32.090Z,9.20
2018-06-01T03:53:35.649Z,8.83
2018-06-01T03:55:39.215Z,10.30
2018-06-01T03:57:42.797Z,9.23
2018-06-01T03:59:46.337Z,10.53
2018-06-01T04:01:49.852Z,10.47
2018-06-01T04:03:53.475Z,10.17
2018-06-01T04:05:57.059Z,8.73
2018-06-01T04:08:00.673Z,9.40
2018-06-01T04:10:03.969Z,8.00
2018-06-01T04:12:07.629Z,9.90
2018-06-01T04:14:11.218Z,9.00
2018-06-01T04:16:14.780Z,8.17
2018-06-01T04:18:18.428Z,9.27
2018-06-01T04:20:22.079Z,8.00
2018-06-01T04:22:25.621Z,7.30
2018-06-01T04:24:29.207Z,8.23
2018-06-01T04:26:32.866Z,7.97
2018-06-01T04:28:36.469Z,7.57
2018-06-01T04:30:40.010Z,7.30
2018-06-01T04:32:43.597Z,7.03
2018-06-01T04:34:48.325Z,8.03
2018-06-01T04:36:51.888Z,7.70
2018-06-01T04:38:55.408Z,10.00
2018-06-01T04:40:58.978Z,9.13
2018-06-01T04:43:02.494Z,8.43
2018-06-01T04:45:05.716Z,7.83
2018-06-01T04:47:09.260Z,6.40
2018-06-01T04:49:12.828Z,6.83
2018-06-01T04:51:18.256Z,6.50
2018-06-01T04:53:21.817Z,5.90
2018-06-01T04:55:25.349Z,6.87
2018-06-01T04:57:28.936Z,6.67
2018-06-01T04:59:32.504Z,5.77
2018-06-01T05:01:35.977Z,6.17
2018-06-01T05:03:39.581Z,5.13
2018-06-01T05:05:43.074Z,5.67
2018-06-01T05:07:46.284Z,6.00
2018-06-01T05:09:49.810Z,5.80
2018-06-01T05:11:53.333Z,5.60
2018-06-01T05:13:56.886Z,5.83
2018-06-01T05:16:00.373Z,6.30
2018-06-01T05:18:03.870Z,5.83
2018-06-01T05:20:07.417Z,5.73
2018-06-01T05:22:10.961Z,5.93
2018-06-01T05:24:14.680Z,6.00
2018-06-01T05:26:18.265Z,5.77
2018-06-01T05:28:21.781Z,6.30
2018-06-01T05:30:25.355Z,6.13
2018-06-01T05:32:28.868Z,6.37
2018-06-01T05:34:32.702Z,6.53
2018-06-01T05:36:36.282Z,6.33
2018-06-01T05:38:39.852Z,6.07
2018-06-01T05:40:43.361Z,7.33
2018-06-01T05:42:46.992Z,6.20
2018-06-01T05:44:50.534Z,6.00
2018-06-01T05:46:54.057Z,5.80
2018-06-01T05:48:57.641Z,5.80
2018-06-01T05:51:01.144Z,5.90
2018-06-01T05:53:04.648Z,5.47
2018-06-01T05:55:08.154Z,5.60
2018-06-01T05:57:11.680Z,6.17
2018-06-01T05:59:15.171Z,6.23
2018-06-01T06:01:18.720Z,6.33
2018-06-01T06:03:22.187Z,6.37
2018-06-01T06:05:25.745Z,6.17
2018-06-01T06:07:29.236Z,6.10
2018-06-01T06:09:32.757Z,4.73
2018-06-01T06:11:36.280Z,5.60
2018-06-01T06:13:39.814Z,5.33
2018-06-01T06:15:43.338Z,5.50
2018-06-01T06:17:46.870Z,5.63
2018-06-01T06:19:50.661Z,5.33
2018-06-01T06:21:54.381Z,5.97
2018-06-01T06:23:57.920Z,6.17
2018-06-01T06:26:01.404Z,6.57
2018-06-01T06:28:04.253Z,6.57
2018-06-01T06:30:07.800Z,5.97
2018-06-01T06:32:11.350Z,5.97
2018-06-01T06:34:14.850Z,6.97
2018-06-01T06:36:18.408Z,5.97
2018-06-01T06:38:22.014Z,6.10
2018-06-01T06:40:25.655Z,6.33
2018-06-01T06:42:29.219Z,5.97
2018-06-01T06:44:32.759Z,6.13
2018-06-01T06:46:36.305Z,7.03
2018-06-01T06:48:39.808Z,6.20
2018-06-01T06:50:43.399Z,7.00
2018-06-01T06:52:46.921Z,6.33
2018-06-01T06:54:50.453Z,6.90
2018-06-01T06:56:54.039Z,6.43
2018-06-01T06:58:57.652Z,6.83
2018-06-01T07:01:01.233Z,6.83
2018-06-01T07:03:04.830Z,7.07
2018-06-01T07:05:08.409Z,7.53
2018-06-01T07:07:11.944Z,7.10
2018-06-01T07:09:15.496Z,7.43
2018-06-01T07:11:19.013Z,7.63
2018-06-01T07:13:22.552Z,6.93
2018-06-01T07:15:26.115Z,7.17
2018-06-01T07:17:29.702Z,6.67
2018-06-01T07:19:33.256Z,6.13
2018-06-01T07:21:36.977Z,6.33
2018-06-01T07:23:40.464Z,5.77
2018-06-01T07:25:44.017Z,5.77
2018-06-01T07:27:47.594Z,6.47
2018-06-01T07:29:51.320Z,6.00
2018-06-01T07:31:54.875Z,5.67
2018-06-01T07:33:58.417Z,5.77
2018-06-01T07:36:01.916Z,5.03
2018-06-01T07:38:05.507Z,5.70
2018-06-01T07:40:09.134Z,5.33
2018-06-01T07:42:12.811Z,5.77
2018-06-01T07:44:16.291Z,4.93
2018-06-01T07:46:19.883Z,5.40
2018-06-01T07:48:23.388Z,5.80
2018-06-01T07:50:26.936Z,5.47
2018-06-01T07:52:30.567Z,5.00
2018-06-01T07:54:34.208Z,4.70
2018-06-01T07:56:37.921Z,4.70
2018-06-01T07:58:41.448Z,4.40
2018-06-01T08:00:44.970Z,4.47
2018-06-01T08:02:48.519Z,4.63
2018-06-01T08:04:52.111Z,4.63
2018-06-01T08:06:55.697Z,5.73
2018-06-01T08:08:59.260Z,4.80
2018-06-01T08:11:02.803Z,5.47
2018-06-01T08:13:06.385Z,5.00
2018-06-01T08:15:09.935Z,4.60
2018-06-01T08:17:13.456Z,4.03
2018-06-01T08:19:17.074Z,4.30
2018-06-01T08:21:20.702Z,4.33
2018-06-01T08:23:24.260Z,4.70
2018-06-01T08:25:27.877Z,4.20
2018-06-01T08:27:31.399Z,3.80
2018-06-01T08:29:34.945Z,3.40
2018-06-01T08:31:38.503Z,4.43
2018-06-01T08:33:42.133Z,3.50
2018-06-01T08:35:46.200Z,3.57
2018-06-01T08:37:49.900Z,3.20
2018-06-01T08:39:53.468Z,3.27
2018-06-01T08:41:57.090Z,3.33
2018-06-01T08:44:00.664Z,3.20
2018-06-01T08:46:09.292Z,3.47
2018-06-01T08:48:12.915Z,3.30
2018-06-01T08:50:16.456Z,3.30
2018-06-01T08:52:20.045Z,3.43
2018-06-01T08:54:23.279Z,3.83
2018-06-01T08:56:26.833Z,3.03
2018-06-01T08:58:30.437Z,3.50
2018-06-01T09:00:33.995Z,3.80
2018-06-01T09:02:37.512Z,3.20
2018-06-01T09:04:41.053Z,3.07
2018-06-01T09:06:44.596Z,4.17
2018-06-01T09:08:48.103Z,3.40
2018-06-01T09:10:51.639Z,3.30
2018-06-01T09:12:54.828Z,2.77
2018-06-01T09:14:58.439Z,3.17
2018-06-01T09:17:01.980Z,2.90
2018-06-01T09:19:07.105Z,3.00
2018-06-01T09:21:10.802Z,2.97
2018-06-01T09:23:14.376Z,2.93
2018-06-01T09:25:19.745Z,2.70
2018-06-01T09:27:23.351Z,3.10
2018-06-01T09:29:26.872Z,3.60
2018-06-01T09:31:30.434Z,3.43
2018-06-01T09:33:34.000Z,3.17
2018-06-01T09:35:37.511Z,2.83
2018-06-01T09:37:41.040Z,3.23
2018-06-01T09:39:44.590Z,3.00
2018-06-01T09:41:48.176Z,3.23
2018-06-01T09:43:51.714Z,3.53
2018-06-01T09:45:55.222Z,3.20
2018-06-01T09:47:58.743Z,3.40
2018-06-01T09:50:02.265Z,3.70
2018-06-01T09:52:05.813Z,3.20
2018-06-01T09:54:09.365Z,3.20
2018-06-01T09:56:12.962Z,3.00
2018-06-01T09:58:16.505Z,3.10
2018-06-01T10:02:57.041Z,2.87
2018-06-01T10:05:00.550Z,3.63
2018-06-01T10:07:04.095Z,3.17
2018-06-01T10:09:07.636Z,4.10
2018-06-01T10:11:11.188Z,4.10
2018-06-01T10:13:14.734Z,3.70
2018-06-01T10:15:18.214Z,3.60
2018-06-01T10:17:21.779Z,2.93
2018-06-01T10:19:25.336Z,4.00
2018-06-01T10:21:28.881Z,3.33
2018-06-01T10:23:32.433Z,3.80
2018-06-01T10:25:35.964Z,3.80
2018-06-01T10:27:39.515Z,3.00
2018-06-01T10:29:43.053Z,3.77
2018-06-01T10:31:46.549Z,3.30
2018-06-01T10:33:50.070Z,3.40
2018-06-01T10:35:53.567Z,3.73
2018-06-01T10:37:57.148Z,3.50
2018-06-01T10:40:00.676Z,3.43
2018-06-01T10:42:04.233Z,3.60
2018-06-01T10:44:07.724Z,3.60
2018-06-01T10:46:11.242Z,3.80
2018-06-01T10:48:14.798Z,3.87
2018-06-01T10:50:18.344Z,4.00
2018-06-01T10:52:21.858Z,3.60
2018-06-01T10:54:25.439Z,4.23
2018-06-01T10:56:29.110Z,3.13
2018-06-01T10:58:32.649Z,4.37
2018-06-01T11:00:36.203Z,3.80
2018-06-01T11:02:39.729Z,4.03
2018-06-01T11:04:43.307Z,4.13
2018-06-01T11:06:46.869Z,3.77
2018-06-01T11:08:50.407Z,4.37
2018-06-01T11:10:53.922Z,3.50
2018-06-01T11:12:57.471Z,4.20
2018-06-01T11:15:00.998Z,3.87
2018-06-01T11:17:04.543Z,3.13
2018-06-01T11:19:08.086Z,3.27
2018-06-01T11:21:11.672Z,2.93
2018-06-01T11:23:15.221Z,2.90
2018-06-01T11:25:18.752Z,3.23
2018-06-01T11:27:22.329Z,2.63
2018-06-01T11:29:25.842Z,2.40
2018-06-01T11:31:29.372Z,2.60
2018-06-01T11:33:32.917Z,2.87
2018-06-01T11:35:36.462Z,2.67
2018-06-01T11:37:39.998Z,2.53
2018-06-01T11:39:43.568Z,3.13
2018-06-01T11:41:47.092Z,2.80
2018-06-01T11:43:50.701Z,2.70
2018-06-01T11:45:54.216Z,2.20
2018-06-01T11:47:57.752Z,2.20
2018-06-01T11:50:01.270Z,2.10
2018-06-01T11:52:04.827Z,2.13
2018-06-01T11:54:08.327Z,3.10
2018-06-01T11:56:11.873Z,2.30
2018-06-01T11:58:15.422Z,2.50
2018-06-01T12:00:18.903Z,2.50
2018-06-01T12:02:22.476Z,2.70
2018-06-01T12:04:26.078Z,2.30
2018-06-01T12:06:29.606Z,3.03
2018-06-01T12:08:33.152Z,2.87
2018-06-01T12:10:36.651Z,3.00
2018-06-01T12:12:40.229Z,2.40
2018-06-01T12:14:43.736Z,2.80
2018-06-01T12:16:47.287Z,2.40
2018-06-01T12:18:50.886Z,2.37
2018-06-01T12:20:55.598Z,2.00
2018-06-01T12:22:59.195Z,2.13
2018-06-01T12:25:02.826Z,2.13
2018-06-01T12:27:06.349Z,2.23
2018-06-01T12:29:10.000Z,2.30
2018-06-01T12:31:13.690Z,2.43
2018-06-01T12:33:17.225Z,2.23
2018-06-01T12:35:20.755Z,2.53
2018-06-01T12:37:24.290Z,2.50
2018-06-01T12:39:27.908Z,2.90
2018-06-01T12:41:31.432Z,2.63
2018-06-01T12:43:34.975Z,3.53
2018-06-01T12:45:38.501Z,4.50
2018-06-01T12:47:42.057Z,3.70
2018-06-01T12:49:45.565Z,4.40
2018-06-01T12:51:49.052Z,4.40
2018-06-01T12:53:52.589Z,3.30
2018-06-01T12:55:56.145Z,3.20
2018-06-01T12:57:59.880Z,3.50
2018-06-01T13:00:03.517Z,3.30
2018-06-01T13:02:07.031Z,3.20
2018-06-01T13:04:10.536Z,2.93
2018-06-01T13:06:14.029Z,3.93
2018-06-01T13:08:17.601Z,4.13
2018-06-01T13:10:23.842Z,4.50
2018-06-01T13:12:27.364Z,4.20
2018-06-01T13:14:31.437Z,4.13
2018-06-01T13:16:34.989Z,4.07
2018-06-01T13:18:38.487Z,3.77
2018-06-01T13:20:42.013Z,3.20
2018-06-01T13:22:45.732Z,3.53
2018-06-01T13:24:49.241Z,4.07
2018-06-01T13:26:52.777Z,4.07
2018-06-01T13:28:56.318Z,4.90
2018-06-01T13:30:59.806Z,4.40
2018-06-01T13:33:03.359Z,4.90
2018-06-01T13:35:07.073Z,4.50
2018-06-01T13:37:10.558Z,4.50
2018-06-01T13:39:14.062Z,4.50
2018-06-01T13:41:17.637Z,3.70
2018-06-01T13:43:20.839Z,4.47
2018-06-01T13:45:24.418Z,4.30
2018-06-01T13:47:27.892Z,4.00
2018-06-01T13:49:31.444Z,3.30
2018-06-01T13:51:34.946Z,3.23
2018-06-01T13:53:38.570Z,3.50
2018-06-01T13:55:42.206Z,3.10
2018-06-01T13:57:45.813Z,3.00
2018-06-01T13:59:49.357Z,3.10
2018-06-01T14:01:52.875Z,3.07
2018-06-01T14:03:56.409Z,3.20
2018-06-01T14:05:59.927Z,3.10
2018-06-01T14:08:03.495Z,3.00
2018-06-01T14:10:07.042Z,2.80
2018-06-01T14:12:10.617Z,2.33
2018-06-01T14:14:14.118Z,2.50
2018-06-01T14:16:17.613Z,2.50
2018-06-01T14:18:21.148Z,2.53
2018-06-01T14:20:24.662Z,2.50
2018-06-01T14:22:28.159Z,2.47
2018-06-01T14:24:31.697Z,2.90
2018-06-01T14:26:35.336Z,3.00
2018-06-01T14:28:38.999Z,3.30
2018-06-01T14:30:42.522Z,3.13
2018-06-01T14:32:46.048Z,3.00
2018-06-01T14:34:49.583Z,3.27
2018-06-01T14:36:53.085Z,3.37
2018-06-01T14:38:56.641Z,3.23
2018-06-01T14:41:00.196Z,3.30
2018-06-01T14:43:03.784Z,3.50
2018-06-01T14:45:07.380Z,3.20
2018-06-01T14:47:11.000Z,3.57
2018-06-01T14:49:14.538Z,3.30
2018-06-01T14:51:18.064Z,3.10
2018-06-01T14:53:21.574Z,3.43
2018-06-01T14:55:25.130Z,3.93
2018-06-01T14:57:28.704Z,3.13
2018-06-01T14:59:32.237Z,3.13
2018-06-01T15:01:35.760Z,3.30
2018-06-01T15:03:39.296Z,3.33
2018-06-01T15:05:42.864Z,3.30
2018-06-01T15:07:46.402Z,3.50
2018-06-01T15:09:49.921Z,3.33
2018-06-01T15:11:53.445Z,3.20
2018-06-01T15:13:57.059Z,3.00
2018-06-01T15:16:00.708Z,3.40
2018-06-01T15:18:04.266Z,3.17
2018-06-01T15:20:07.802Z,3.10
2018-06-01T15:22:11.361Z,3.10
2018-06-01T15:24:14.865Z,2.20
2018-06-01T15:26:18.376Z,2.20
2018-06-01T15:28:21.917Z,1.93
2018-06-01T15:30:25.477Z,2.27
2018-06-01T15:32:29.061Z,2.20
2018-06-01T15:34:32.643Z,2.10
2018-06-01T15:36:36.175Z,2.53
2018-06-01T15:38:39.700Z,2.30
2018-06-01T15:40:43.275Z,3.03
2018-06-01T15:42:46.782Z,3.37
2018-06-01T15:44:50.312Z,3.47
2018-06-01T15:46:53.860Z,3.90
2018-06-01T15:48:57.406Z,3.33
2018-06-01T15:51:01.118Z,3.23
2018-06-01T15:53:04.366Z,3.30
2018-06-01T15:55:07.921Z,3.70
2018-06-01T15:57:11.846Z,3.20
2018-06-01T15:59:15.389Z,3.30
2018-06-01T16:01:18.939Z,3.73
2018-06-01T16:03:22.462Z,3.07
2018-06-01T16:05:26.027Z,3.37
2018-06-01T16:07:29.580Z,3.20
2018-06-01T16:09:33.126Z,3.33
2018-06-01T16:11:36.631Z,3.13
2018-06-01T16:13:40.148Z,3.50
2018-06-01T16:15:43.374Z,3.20
2018-06-01T16:17:46.906Z,2.97
2018-06-01T16:19:50.459Z,3.17
2018-06-01T16:21:53.977Z,3.13
2018-06-01T16:23:57.499Z,2.50
2018-06-01T16:26:01.098Z,2.60
2018-06-01T16:28:04.619Z,2.20
2018-06-01T16:30:08.147Z,2.17
2018-06-01T16:32:11.667Z,2.60
2018-06-01T16:34:15.199Z,2.40
2018-06-01T16:36:18.793Z,2.40
2018-06-01T16:38:22.333Z,2.77
2018-06-01T16:40:25.882Z,2.57
2018-06-01T16:42:29.408Z,2.77
2018-06-01T16:44:32.939Z,2.60
2018-06-01T16:46:36.494Z,2.47
2018-06-01T16:48:39.982Z,2.57
2018-06-01T16:50:43.514Z,2.47
2018-06-01T16:52:47.054Z,2.60
2018-06-01T16:54:50.711Z,2.77
2018-06-01T16:56:54.261Z,2.73
2018-06-01T16:58:57.793Z,2.60
2018-06-01T17:01:01.332Z,2.47
2018-06-01T17:03:04.812Z,2.40
2018-06-01T17:05:08.355Z,2.63
2018-06-01T17:07:11.899Z,2.73
2018-06-01T17:09:15.460Z,2.47
2018-06-01T17:11:18.975Z,2.90
2018-06-01T17:13:22.545Z,2.90
2018-06-01T17:15:26.048Z,3.00
2018-06-01T17:17:29.576Z,2.47
2018-06-01T17:19:33.125Z,2.93
2018-06-01T17:21:36.691Z,2.43
2018-06-01T17:23:40.194Z,2.33
2018-06-01T17:25:43.732Z,2.30
2018-06-01T17:27:47.282Z,2.50
2018-06-01T17:29:50.823Z,2.80
2018-06-01T17:31:54.354Z,2.53
2018-06-01T17:33:57.911Z,2.67
2018-06-01T17:36:01.450Z,2.80
2018-06-01T17:38:04.674Z,2.80
2018-06-01T17:40:08.185Z,2.50
2018-06-01T17:42:11.764Z,2.50
2018-06-01T17:44:15.360Z,2.57
2018-06-01T17:46:19.068Z,2.60
2018-06-01T17:48:22.561Z,2.50
2018-06-01T17:50:26.339Z,2.20
2018-06-01T17:52:29.868Z,2.60
2018-06-01T17:54:33.604Z,2.40
2018-06-01T17:56:37.170Z,2.50
2018-06-01T17:58:40.688Z,2.60
2018-06-01T18:00:44.168Z,2.30
2018-06-01T18:02:47.740Z,2.17
2018-06-01T18:04:51.232Z,2.97
2018-06-01T18:06:54.755Z,2.63
2018-06-01T18:08:58.273Z,3.00
2018-06-01T18:11:01.901Z,2.33
2018-06-01T18:13:05.142Z,2.70
2018-06-01T18:15:08.735Z,2.57
2018-06-01T18:17:12.326Z,2.40
2018-06-01T18:19:15.799Z,2.80
2018-06-01T18:21:19.334Z,2.40
2018-06-01T18:23:22.862Z,2.30
2018-06-01T18:25:26.389Z,2.97
2018-06-01T18:27:29.900Z,2.70
2018-06-01T18:29:33.431Z,2.57
2018-06-01T18:31:37.011Z,2.43
2018-06-01T18:33:40.522Z,2.53
2018-06-01T18:35:44.251Z,2.77
2018-06-01T18:37:47.807Z,2.70
2018-06-01T18:39:51.290Z,2.43
2018-06-01T18:41:54.791Z,2.80
2018-06-01T18:43:58.443Z,3.33
2018-06-01T18:46:02.131Z,2.40
2018-06-01T18:48:05.654Z,3.07
2018-06-01T18:50:09.179Z,2.93
2018-06-01T18:52:12.705Z,2.70
2018-06-01T18:54:16.272Z,2.50
2018-06-01T18:56:19.768Z,2.87
2018-06-01T18:58:23.296Z,2.97
2018-06-01T19:00:26.841Z,2.80
2018-06-01T19:02:30.351Z,3.17
2018-06-01T19:04:33.888Z,2.97
2018-06-01T19:06:37.429Z,2.80
2018-06-01T19:08:40.945Z,3.47
2018-06-01T19:10:44.504Z,3.10
2018-06-01T19:12:48.011Z,3.10
2018-06-01T19:14:51.558Z,3.10
2018-06-01T19:16:55.098Z,3.27
2018-06-01T19:18:58.336Z,3.07
2018-06-01T19:21:01.905Z,3.47
2018-06-01T19:23:05.066Z,3.50
2018-06-01T19:25:08.595Z,3.33
2018-06-01T19:27:12.123Z,3.90
2018-06-01T19:29:15.696Z,3.53
2018-06-01T19:31:18.877Z,3.60
2018-06-01T19:33:22.380Z,4.17
2018-06-01T19:35:25.903Z,3.80
2018-06-01T19:37:29.437Z,3.93
2018-06-01T19:39:32.940Z,4.17
2018-06-01T19:41:36.439Z,4.27
2018-06-01T19:43:39.961Z,4.50
2018-06-01T19:45:43.483Z,4.30
2018-06-01T19:47:47.000Z,4.07
2018-06-01T19:49:50.498Z,4.53
2018-06-01T19:51:54.018Z,5.07
2018-06-01T19:53:57.593Z,4.37
2018-06-01T19:56:01.085Z,4.50
2018-06-01T19:58:04.583Z,4.70
2018-06-01T20:00:08.165Z,4.70
2018-06-01T20:02:11.643Z,4.60
2018-06-01T20:04:15.200Z,4.97
2018-06-01T20:06:18.690Z,4.33
2018-06-01T20:08:22.244Z,4.50
2018-06-01T20:10:25.754Z,4.23
2018-06-01T20:12:29.280Z,4.63
2018-06-01T20:14:32.777Z,4.53
2018-06-01T20:16:36.304Z,5.10
2018-06-01T20:18:39.849Z,4.67
2018-06-01T20:20:43.412Z,4.90
2018-06-01T20:22:46.922Z,5.47
2018-06-01T20:24:50.456Z,4.67
2018-06-01T20:26:53.974Z,5.17
2018-06-01T20:28:57.488Z,5.10
2018-06-01T20:31:01.039Z,4.57
2018-06-01T20:33:04.510Z,4.97
2018-06-01T20:35:08.071Z,5.37
2018-06-01T20:37:11.606Z,5.27
2018-06-01T20:39:15.172Z,6.03
2018-06-01T20:41:18.702Z,5.70
2018-06-01T20:43:22.198Z,5.63
2018-06-01T20:45:25.721Z,5.60
2018-06-01T20:47:29.237Z,6.10
2018-06-01T20:49:32.831Z,5.73
2018-06-01T20:51:36.515Z,5.03
2018-06-01T20:53:40.001Z,5.33
2018-06-01T20:55:43.555Z,6.37
2018-06-01T20:57:47.089Z,5.73
2018-06-01T20:59:50.613Z,6.70
2018-06-01T21:01:54.191Z,5.70
2018-06-01T21:03:57.740Z,6.60
2018-06-01T21:06:01.277Z,6.03
2018-06-01T21:08:04.475Z,6.53
2018-06-01T21:10:08.005Z,6.07
2018-06-01T21:12:11.557Z,6.03
2018-06-01T21:14:15.088Z,6.63
2018-06-01T21:16:18.670Z,6.07
2018-06-01T21:18:22.222Z,6.47
2018-06-01T21:20:25.765Z,6.10
2018-06-01T21:22:29.266Z,6.10
2018-06-01T21:24:32.796Z,6.40
2018-06-01T21:26:36.322Z,6.77
2018-06-01T21:28:39.841Z,6.37
2018-06-01T21:30:43.374Z,6.37
2018-06-01T21:32:47.139Z,6.97
2018-06-01T21:34:50.681Z,6.90
2018-06-01T21:36:54.228Z,7.27
2018-06-01T21:38:57.826Z,7.30
2018-06-01T21:41:01.511Z,7.27
2018-06-01T21:43:05.030Z,7.63
2018-06-01T21:45:08.613Z,7.17
2018-06-01T21:47:12.164Z,7.20
2018-06-01T21:49:15.662Z,6.67
2018-06-01T21:51:19.188Z,7.07
2018-06-01T21:53:22.714Z,7.33
2018-06-01T21:55:26.302Z,7.53
2018-06-01T21:57:29.780Z,7.33
2018-06-01T21:59:33.293Z,7.30
2018-06-01T22:01:36.804Z,6.80
2018-06-01T22:03:40.305Z,7.43
2018-06-01T22:05:43.843Z,7.20
2018-06-01T22:07:47.361Z,7.43
2018-06-01T22:09:50.963Z,7.07
2018-06-01T22:11:54.510Z,7.30
2018-06-01T22:13:58.066Z,7.03
2018-06-01T22:16:01.593Z,6.87
2018-06-01T22:18:05.103Z,7.00
2018-06-01T22:20:08.330Z,7.00
2018-06-01T22:22:11.618Z,7.07
2018-06-01T22:24:14.927Z,7.60
2018-06-01T22:26:18.424Z,6.97
2018-06-01T22:28:21.967Z,7.17
2018-06-01T22:30:25.495Z,7.53
2018-06-01T22:32:28.994Z,7.60
2018-06-01T22:34:32.523Z,7.77
2018-06-01T22:36:36.079Z,6.90
2018-06-01T22:38:39.612Z,7.73
2018-06-01T22:40:43.167Z,7.50
2018-06-01T22:42:46.642Z,7.77
2018-06-01T22:44:50.170Z,7.67
2018-06-01T22:46:53.715Z,8.03
2018-06-01T22:48:57.242Z,9.30
2018-06-01T22:51:00.785Z,8.87
2018-06-01T22:53:04.335Z,8.67
2018-06-01T22:55:07.856Z,9.57
2018-06-01T22:57:11.349Z,8.53
2018-06-01T22:59:14.882Z,9.13
2018-06-01T23:01:18.415Z,8.90
2018-06-01T23:03:21.955Z,8.40
2018-06-01T23:05:25.470Z,8.27
2018-06-01T23:07:29.048Z,8.97
2018-06-01T23:09:32.583Z,9.03
2018-06-01T23:11:36.088Z,7.90
2018-06-01T23:13:39.622Z,10.83
2018-06-01T23:15:43.140Z,9.97
2018-06-01T23:17:46.663Z,9.80
2018-06-01T23:19:50.241Z,10.53
2018-06-01T23:21:53.937Z,10.63
2018-06-01T23:23:57.441Z,11.47
2018-06-01T23:26:00.995Z,9.50
2018-06-01T23:28:04.200Z,10.20
2018-06-01T23:30:07.723Z,10.20
2018-06-01T23:32:11.295Z,10.13
2018-06-01T23:34:14.808Z,10.10
2018-06-01T23:36:18.349Z,9.50
2018-06-01T23:38:21.906Z,10.17
2018-06-01T23:40:25.438Z,9.33
2018-06-01T23:42:28.992Z,9.00
2018-06-01T23:44:32.528Z,9.57
2018-06-01T23:46:36.046Z,10.23
2018-06-01T23:48:39.551Z,9.97
2018-06-01T23:50:43.099Z,9.70
2018-06-01T23:52:46.631Z,9.70
2018-06-01T23:54:50.177Z,10.13
2018-06-01T23:56:53.752Z,9.63
2018-06-01T23:58:57.271Z,9.13
